Temecula, California
Current Conditions -  °F | °C
As of 12:15 PM on Friday 28 Nov 2014 (Local Time) from KF70 Reporting Station
Clear Clear  
Wind Chill: 79°   Ceiling: Unl
Heat Index: 79°   Visibility: 10mi
Dew Point: 25°   Wind: 6mph
Humidity: 14%   Direction: 210°SSW
Pressure: 29.97"   Gusts: NA
Location:  33.5°N, 117.16°W
Report Text: KF70 282015Z AUTO 21005KT 10SM CLR 26/M04 A2997 RMK AO1
Loading
Personal Weather Stations






























Interactive Weather Map New forecast layout! Learn more

10-Day Weather Forecast

Advertisements
Track Severe Weather on mobile